createdAt,value
2023-04-07T00:00:21.534Z,101802.10
2023-04-07T00:03:32.580Z,101803.08
2023-04-07T00:06:43.674Z,101803.42
2023-04-07T00:09:54.526Z,101805.70
2023-04-07T00:13:06.038Z,101804.80
2023-04-07T00:16:16.866Z,101809.30
2023-04-07T00:19:28.346Z,101809.65
2023-04-07T00:22:41.197Z,101807.58
2023-04-07T00:25:52.216Z,101806.80
2023-04-07T00:29:02.217Z,101800.96
2023-04-07T00:32:13.411Z,101798.92
2023-04-07T00:35:24.670Z,101801.39
2023-04-07T00:38:35.718Z,101801.02
2023-04-07T00:41:46.514Z,101798.51
2023-04-07T00:44:57.255Z,101796.36
2023-04-07T00:48:08.141Z,101794.56
2023-04-07T00:51:20.019Z,101794.10
2023-04-07T00:54:25.032Z,101796.79
2023-04-07T00:57:36.098Z,101798.52
2023-04-07T01:00:52.989Z,101800.83
2023-04-07T01:04:07.018Z,101793.27
2023-04-07T01:07:16.505Z,101791.90
2023-04-07T01:10:31.699Z,101795.58
2023-04-07T01:13:44.799Z,101797.73
2023-04-07T01:16:59.305Z,101794.27
2023-04-07T01:20:12.302Z,101790.18
2023-04-07T01:23:19.234Z,101791.31
2023-04-07T01:26:27.146Z,101794.77
2023-04-07T01:29:40.657Z,101794.23
2023-04-07T01:32:53.479Z,101791.06
2023-04-07T01:36:04.730Z,101789.89
2023-04-07T01:39:16.164Z,101789.67
2023-04-07T01:42:30.706Z,101790.91
2023-04-07T01:45:42.990Z,101793.64
2023-04-07T01:48:57.124Z,101797.94
2023-04-07T01:52:09.130Z,101793.66
2023-04-07T01:55:20.116Z,101792.64
2023-04-07T01:58:32.454Z,101788.41
2023-04-07T02:01:43.644Z,101787.92
2023-04-07T02:04:56.612Z,101792.38
2023-04-07T02:08:05.311Z,101791.58
2023-04-07T02:11:18.567Z,101795.55
2023-04-07T02:14:29.772Z,101794.39
2023-04-07T02:17:47.092Z,101793.05
2023-04-07T02:20:59.162Z,101793.80
2023-04-07T02:24:12.842Z,101792.41
2023-04-07T02:27:23.699Z,101793.15
2023-04-07T02:30:35.086Z,101787.98
2023-04-07T02:33:45.939Z,101790.98
2023-04-07T02:36:57.266Z,101789.52
2023-04-07T02:40:09.338Z,101789.69
2023-04-07T02:43:21.329Z,101789.55
2023-04-07T02:46:32.294Z,101786.42
2023-04-07T02:49:43.598Z,101785.90
2023-04-07T02:52:57.051Z,101788.58
2023-04-07T02:56:08.891Z,101789.36
2023-04-07T02:59:19.803Z,101786.44
2023-04-07T03:02:30.855Z,101786.61
2023-04-07T03:05:44.313Z,101785.15
2023-04-07T03:08:55.920Z,101784.88
2023-04-07T03:12:06.879Z,101785.46
2023-04-07T03:15:19.011Z,101788.13
2023-04-07T03:18:30.455Z,101785.27
2023-04-07T03:21:41.750Z,101788.30
2023-04-07T03:24:52.906Z,101785.28
2023-04-07T03:28:03.698Z,101783.16
2023-04-07T03:31:14.791Z,101787.15
2023-04-07T03:34:26.265Z,101786.63
2023-04-07T03:37:37.322Z,101785.95
2023-04-07T03:40:48.600Z,101785.77
2023-04-07T03:43:59.708Z,101787.66
2023-04-07T03:47:10.591Z,101784.78
2023-04-07T03:50:21.664Z,101786.75
2023-04-07T03:53:45.236Z,101785.08
2023-04-07T03:57:02.522Z,101786.75
2023-04-07T04:00:14.858Z,101786.40
2023-04-07T04:03:28.749Z,101783.38
2023-04-07T04:06:39.611Z,101784.58
2023-04-07T04:09:50.305Z,101783.27
2023-04-07T04:13:03.854Z,101778.77
2023-04-07T04:16:15.319Z,101778.13
2023-04-07T04:19:26.421Z,101779.81
2023-04-07T04:22:37.284Z,101779.56
2023-04-07T04:25:48.174Z,101779.66
2023-04-07T04:29:15.887Z,101779.92
2023-04-07T04:32:26.746Z,101782.13
2023-04-07T04:35:38.061Z,101780.54
2023-04-07T04:38:52.245Z,101777.12
2023-04-07T04:42:04.039Z,101779.58
2023-04-07T04:45:14.867Z,101782.70
2023-04-07T04:48:25.674Z,101783.98
2023-04-07T04:51:36.431Z,101782.77
2023-04-07T04:54:47.196Z,101787.71
2023-04-07T04:57:58.432Z,101786.13
2023-04-07T05:01:09.621Z,101783.27
2023-04-07T05:04:21.671Z,101784.12
2023-04-07T05:07:33.231Z,101782.67
2023-04-07T05:10:44.878Z,101784.96
2023-04-07T05:13:52.460Z,101783.60
2023-04-07T05:17:03.835Z,101783.44
2023-04-07T05:20:14.925Z,101783.67
2023-04-07T05:23:25.712Z,101785.16
2023-04-07T05:26:36.683Z,101788.64
2023-04-07T05:29:47.948Z,101792.21
2023-04-07T05:32:59.153Z,101792.61
2023-04-07T05:36:10.957Z,101789.69
2023-04-07T05:39:21.813Z,101797.60
2023-04-07T05:42:32.600Z,101799.08
2023-04-07T05:45:43.544Z,101799.37
2023-04-07T05:48:54.781Z,101804.36
2023-04-07T05:52:06.575Z,101803.39
2023-04-07T05:55:17.940Z,101804.33
2023-04-07T05:58:29.375Z,101807.84
2023-04-07T06:01:40.384Z,101808.30
2023-04-07T06:04:51.811Z,101804.02
2023-04-07T06:08:02.941Z,101804.52
2023-04-07T06:11:13.986Z,101810.63
2023-04-07T06:14:24.678Z,101810.66
2023-04-07T06:17:35.531Z,101808.38
2023-04-07T06:20:46.344Z,101803.55
2023-04-07T06:23:57.568Z,101806.41
2023-04-07T06:27:09.021Z,101811.11
2023-04-07T06:30:20.312Z,101808.08
2023-04-07T06:33:31.772Z,101816.34
2023-04-07T06:36:42.731Z,101817.70
2023-04-07T06:39:56.045Z,101814.14
2023-04-07T06:43:09.883Z,101813.86
2023-04-07T06:46:20.824Z,101818.10
2023-04-07T06:49:31.776Z,101820.21
2023-04-07T06:52:43.325Z,101820.20
2023-04-07T06:56:03.867Z,101821.13
2023-04-07T06:58:57.485Z,101818.59
2023-04-07T07:02:09.408Z,101819.26
2023-04-07T07:05:21.424Z,101821.75
2023-04-07T07:08:32.277Z,101816.50
2023-04-07T07:11:40.526Z,101816.83
2023-04-07T07:14:51.384Z,101815.24
2023-04-07T07:18:02.231Z,101817.96
2023-04-07T07:20:57.781Z,101823.12
2023-04-07T07:23:51.644Z,101815.60
2023-04-07T07:26:52.428Z,101817.65
2023-04-07T07:30:03.170Z,101810.13
2023-04-07T07:33:13.070Z,101802.11
2023-04-07T07:36:13.992Z,101800.13
2023-04-07T07:39:05.696Z,101796.20
2023-04-07T07:41:56.646Z,101793.57
2023-04-07T07:44:47.213Z,101793.88
2023-04-07T07:47:38.114Z,101793.18
2023-04-07T07:50:28.679Z,101784.10
2023-04-07T07:53:19.342Z,101781.29
2023-04-07T07:56:09.869Z,101786.59
2023-04-07T07:59:00.389Z,101779.38
2023-04-07T08:01:51.348Z,101774.39
2023-04-07T08:04:41.892Z,101773.55
2023-04-07T08:07:32.440Z,101768.88
2023-04-07T08:10:25.127Z,101764.64
2023-04-07T08:13:16.586Z,101760.83
2023-04-07T08:16:07.787Z,101759.48
2023-04-07T08:18:58.365Z,101761.86
2023-04-07T08:21:48.901Z,101758.17
2023-04-07T08:24:39.420Z,101759.08
2023-04-07T08:27:30.437Z,101762.14
2023-04-07T08:30:22.560Z,101766.39
2023-04-07T08:33:12.609Z,101763.85
2023-04-07T08:36:03.340Z,101758.98
2023-04-07T08:38:53.828Z,101761.42
2023-04-07T08:41:46.207Z,101759.54
2023-04-07T08:44:38.304Z,101753.92
2023-04-07T08:47:29.652Z,101752.20
2023-04-07T08:50:20.538Z,101754.71
2023-04-07T08:53:13.101Z,101756.86
2023-04-07T08:56:06.617Z,101754.93
2023-04-07T08:58:56.933Z,101746.89
2023-04-07T09:01:47.936Z,101748.23
2023-04-07T09:04:39.897Z,101744.62
2023-04-07T09:07:30.185Z,101742.99
2023-04-07T09:10:21.045Z,101739.58
2023-04-07T09:13:14.510Z,101740.99
2023-04-07T09:16:05.319Z,101745.98
2023-04-07T09:18:55.935Z,101741.73
2023-04-07T09:21:51.879Z,101743.84
2023-04-07T09:24:42.800Z,101743.52
2023-04-07T09:27:34.500Z,101744.48
2023-04-07T09:30:25.720Z,101743.45
2023-04-07T09:33:18.188Z,101745.95
2023-04-07T09:36:09.103Z,101743.21
2023-04-07T09:39:09.365Z,101742.32
2023-04-07T09:42:08.143Z,101745.02
2023-04-07T09:45:00.417Z,101746.57
2023-04-07T09:47:52.041Z,101744.15
2023-04-07T09:50:46.025Z,101742.23
2023-04-07T09:53:44.468Z,101740.65
2023-04-07T09:56:35.325Z,101738.51
2023-04-07T09:59:26.502Z,101736.34
2023-04-07T10:02:17.564Z,101738.56
2023-04-07T10:05:09.318Z,101743.77
2023-04-07T10:08:05.043Z,101743.59
2023-04-07T10:10:55.855Z,101739.70
2023-04-07T10:13:47.220Z,101740.95
2023-04-07T10:16:45.680Z,101736.08
2023-04-07T10:19:39.612Z,101733.39
2023-04-07T10:22:31.370Z,101734.41
2023-04-07T10:25:23.853Z,101730.36
2023-04-07T10:28:15.793Z,101732.41
2023-04-07T10:31:43.536Z,101730.58
2023-04-07T10:34:53.672Z,101727.80
2023-04-07T10:38:04.170Z,101719.14
2023-04-07T10:40:54.374Z,101717.81
2023-04-07T10:43:45.351Z,101721.92
2023-04-07T10:46:55.712Z,101723.42
2023-04-07T10:50:08.902Z,101717.36
2023-04-07T10:53:09.053Z,101716.92
2023-04-07T10:55:59.473Z,101716.92
2023-04-07T10:59:13.358Z,101714.10
2023-04-07T11:02:17.881Z,101709.68
2023-04-07T11:05:09.040Z,101704.05
2023-04-07T11:08:02.778Z,101703.55
2023-04-07T11:10:53.450Z,101701.46
2023-04-07T11:13:44.263Z,101709.17
2023-04-07T11:16:42.644Z,101707.05
2023-04-07T11:19:56.090Z,101697.58
2023-04-07T11:23:14.520Z,101695.54
2023-04-07T11:26:16.316Z,101694.69
2023-04-07T11:29:10.633Z,101690.00
2023-04-07T11:32:01.527Z,101695.13
2023-04-07T11:34:52.571Z,101703.59
2023-04-07T11:37:43.165Z,101702.16
2023-04-07T11:40:38.245Z,101709.57
2023-04-07T11:43:29.348Z,101702.00
2023-04-07T11:46:19.976Z,101705.69
2023-04-07T11:49:17.426Z,101708.05
2023-04-07T11:52:20.675Z,101703.81
2023-04-07T11:55:22.075Z,101706.80
2023-04-07T11:58:13.143Z,101706.86
2023-04-07T12:01:07.015Z,101698.97
2023-04-07T12:03:59.633Z,101705.26
2023-04-07T12:06:50.456Z,101696.71
2023-04-07T12:09:43.738Z,101693.52
2023-04-07T12:12:34.288Z,101703.25
2023-04-07T12:15:25.193Z,101707.44
2023-04-07T12:18:19.329Z,101706.10
2023-04-07T12:21:09.947Z,101711.01
2023-04-07T12:24:00.684Z,101712.13
2023-04-07T12:26:51.578Z,101709.89
2023-04-07T12:29:42.195Z,101701.95
2023-04-07T12:32:34.255Z,101704.11
2023-04-07T12:35:24.930Z,101699.89
2023-04-07T12:38:15.774Z,101699.39
2023-04-07T12:41:06.559Z,101703.55
2023-04-07T12:43:57.113Z,101696.89
2023-04-07T12:46:47.938Z,101701.84
2023-04-07T12:49:38.360Z,101692.81
2023-04-07T12:52:28.902Z,101688.61
2023-04-07T12:55:19.462Z,101689.94
2023-04-07T12:58:10.407Z,101690.64
2023-04-07T13:01:01.565Z,101691.27
2023-04-07T13:03:52.853Z,101697.17
2023-04-07T13:06:43.752Z,101703.73
2023-04-07T13:09:34.440Z,101708.65
2023-04-07T13:12:25.047Z,101710.42
2023-04-07T13:15:16.119Z,101713.27
2023-04-07T13:18:06.978Z,101711.67
2023-04-07T13:21:33.741Z,101712.47
2023-04-07T13:24:08.378Z,101709.84
2023-04-07T13:26:59.766Z,101706.51
2023-04-07T13:29:50.364Z,101708.41
2023-04-07T13:32:41.074Z,101707.48
2023-04-07T13:35:36.046Z,101700.35
2023-04-07T13:38:26.887Z,101695.30
2023-04-07T13:41:17.491Z,101692.93
2023-04-07T13:44:08.263Z,101692.27
2023-04-07T13:46:59.044Z,101691.67
2023-04-07T13:49:50.899Z,101691.45
2023-04-07T13:52:41.438Z,101688.91
2023-04-07T13:55:36.973Z,101693.33
2023-04-07T13:58:32.088Z,101690.05
2023-04-07T14:01:27.934Z,101692.05
2023-04-07T14:04:20.153Z,101684.59
2023-04-07T14:07:11.008Z,101682.38
2023-04-07T14:10:01.568Z,101680.33
2023-04-07T14:12:52.619Z,101676.63
2023-04-07T14:15:42.939Z,101676.23
2023-04-07T14:18:33.411Z,101676.60
2023-04-07T14:21:24.615Z,101679.40
2023-04-07T14:24:15.133Z,101680.64
2023-04-07T14:27:05.981Z,101677.27
2023-04-07T14:29:58.116Z,101670.60
2023-04-07T14:32:48.792Z,101669.18
2023-04-07T14:35:39.881Z,101671.55
2023-04-07T14:38:30.946Z,101669.85
2023-04-07T14:41:21.643Z,101670.98
2023-04-07T14:44:12.214Z,101668.88
2023-04-07T14:47:02.755Z,101667.71
2023-04-07T14:49:54.489Z,101670.18
2023-04-07T14:52:44.858Z,101660.52
2023-04-07T14:55:36.350Z,101657.64
2023-04-07T14:58:26.909Z,101657.46
2023-04-07T15:01:23.889Z,101658.80
2023-04-07T15:04:14.834Z,101659.60
2023-04-07T15:07:05.440Z,101657.95
2023-04-07T15:09:57.019Z,101661.89
2023-04-07T15:12:48.918Z,101667.77
2023-04-07T15:15:39.812Z,101663.77
2023-04-07T15:18:30.779Z,101660.23
2023-04-07T15:21:21.704Z,101661.35
2023-04-07T15:24:13.328Z,101664.40
2023-04-07T15:27:05.546Z,101662.95
2023-04-07T15:29:56.226Z,101660.20
2023-04-07T15:33:00.648Z,101658.27
2023-04-07T15:35:51.003Z,101659.80
2023-04-07T15:38:42.415Z,101658.21
2023-04-07T15:41:33.353Z,101656.94
2023-04-07T15:44:24.041Z,101666.75
2023-04-07T15:47:14.736Z,101664.96
2023-04-07T15:50:06.157Z,101667.95
2023-04-07T15:52:57.269Z,101666.58
2023-04-07T15:55:47.958Z,101663.24
2023-04-07T15:58:38.859Z,101662.83
2023-04-07T16:01:30.186Z,101663.02
2023-04-07T16:04:23.462Z,101669.21
2023-04-07T16:07:14.292Z,101668.48
2023-04-07T16:10:08.351Z,101673.02
2023-04-07T16:13:00.884Z,101670.09
2023-04-07T16:15:54.598Z,101675.51
2023-04-07T16:18:45.204Z,101670.16
2023-04-07T16:21:35.794Z,101667.30
2023-04-07T16:24:26.379Z,101672.02
2023-04-07T16:27:17.088Z,101674.64
2023-04-07T16:30:08.620Z,101672.16
2023-04-07T16:33:00.378Z,101673.88
2023-04-07T16:35:51.554Z,101676.08
2023-04-07T16:38:42.309Z,101678.76
2023-04-07T16:44:37.262Z,101679.20
2023-04-07T16:47:28.316Z,101680.83
2023-04-07T16:50:18.753Z,101681.71
2023-04-07T16:53:11.436Z,101679.25
2023-04-07T16:56:02.438Z,101677.22
2023-04-07T16:58:52.980Z,101680.98
2023-04-07T17:01:48.271Z,101682.99
2023-04-07T17:04:39.039Z,101681.89
2023-04-07T17:07:29.735Z,101677.19
2023-04-07T17:10:20.359Z,101681.55
2023-04-07T17:13:14.150Z,101687.14
2023-04-07T17:16:08.094Z,101688.31
2023-04-07T17:18:58.575Z,101686.71
2023-04-07T17:21:49.412Z,101689.75
2023-04-07T17:24:39.964Z,101690.42
2023-04-07T17:27:30.602Z,101689.22
2023-04-07T17:30:21.572Z,101690.29
2023-04-07T17:33:16.212Z,101688.78
2023-04-07T17:36:08.999Z,101688.02
2023-04-07T17:39:03.146Z,101688.55
2023-04-07T17:41:58.364Z,101692.55
2023-04-07T17:44:52.589Z,101694.00
2023-04-07T17:47:43.355Z,101698.10
2023-04-07T17:50:38.280Z,101703.61
2023-04-07T17:53:28.900Z,101706.23
2023-04-07T17:56:25.792Z,101709.64
2023-04-07T17:59:19.446Z,101713.11
2023-04-07T18:02:14.282Z,101719.48
2023-04-07T18:05:09.234Z,101721.49
2023-04-07T18:08:12.213Z,101730.07
2023-04-07T18:11:23.024Z,101738.26
2023-04-07T18:14:33.971Z,101740.42
2023-04-07T18:17:35.584Z,101742.67
2023-04-07T18:20:26.189Z,101746.80
2023-04-07T18:23:16.930Z,101751.12
2023-04-07T18:26:17.357Z,101752.86
2023-04-07T18:29:16.811Z,101756.25
2023-04-07T18:32:09.890Z,101760.29
2023-04-07T18:35:20.850Z,101760.59
2023-04-07T18:38:30.150Z,101757.46
2023-04-07T18:41:44.546Z,101759.08
2023-04-07T18:44:35.264Z,101765.60
2023-04-07T18:47:35.302Z,101770.54
2023-04-07T18:50:49.981Z,101777.02
2023-04-07T18:53:40.550Z,101778.77
2023-04-07T18:56:44.266Z,101781.65
2023-04-07T18:59:46.197Z,101783.80
2023-04-07T19:02:44.636Z,101786.65
2023-04-07T19:05:47.834Z,101789.79
2023-04-07T19:08:50.072Z,101799.71
2023-04-07T19:11:43.744Z,101803.08
2023-04-07T19:14:39.053Z,101802.81
2023-04-07T19:17:30.474Z,101805.23
2023-04-07T19:20:21.205Z,101808.85
2023-04-07T19:23:11.837Z,101807.41
2023-04-07T19:26:22.668Z,101810.14
2023-04-07T19:29:13.302Z,101816.77
2023-04-07T19:32:24.332Z,101819.06
2023-04-07T19:35:35.898Z,101820.81
2023-04-07T19:38:37.998Z,101827.20
2023-04-07T19:41:48.762Z,101828.48
2023-04-07T19:44:48.576Z,101833.80
2023-04-07T19:47:43.573Z,101833.68
2023-04-07T19:50:43.133Z,101835.24
2023-04-07T19:53:42.715Z,101837.65
2023-04-07T19:56:42.394Z,101836.98
2023-04-07T19:59:41.971Z,101843.19
2023-04-07T20:02:44.171Z,101844.23
2023-04-07T20:05:47.913Z,101850.30
2023-04-07T20:08:43.762Z,101851.59
2023-04-07T20:11:53.669Z,101851.54
2023-04-07T20:15:07.195Z,101856.67
2023-04-07T20:18:11.269Z,101864.08
2023-04-07T20:21:07.596Z,101865.09
2023-04-07T20:24:19.158Z,101870.88
2023-04-07T20:27:22.941Z,101872.59
2023-04-07T20:30:17.375Z,101874.00
2023-04-07T20:33:28.682Z,101877.52
2023-04-07T20:36:39.945Z,101875.71
2023-04-07T20:39:55.717Z,101882.25
2023-04-07T20:43:06.919Z,101881.22
2023-04-07T20:46:00.536Z,101884.36
2023-04-07T20:49:11.806Z,101887.02
2023-04-07T20:52:08.078Z,101886.32
2023-04-07T20:55:19.295Z,101881.31
2023-04-07T20:58:21.713Z,101880.77
2023-04-07T21:01:32.630Z,101882.54
2023-04-07T21:04:38.860Z,101885.96
2023-04-07T21:07:49.815Z,101879.65
2023-04-07T21:11:00.916Z,101878.77
2023-04-07T21:14:04.806Z,101877.97
2023-04-07T21:17:08.015Z,101879.64
2023-04-07T21:20:19.169Z,101878.19
2023-04-07T21:23:23.973Z,101876.55
2023-04-07T21:26:34.736Z,101876.13
2023-04-07T21:29:41.235Z,101878.06
2023-04-07T21:32:48.227Z,101879.52
2023-04-07T21:35:49.828Z,101876.32
2023-04-07T21:38:54.035Z,101869.83
2023-04-07T21:42:04.906Z,101874.53
2023-04-07T21:45:16.285Z,101872.23
2023-04-07T21:48:27.132Z,101876.03
2023-04-07T21:51:38.036Z,101878.89
2023-04-07T21:54:49.324Z,101876.21
2023-04-07T21:58:00.837Z,101876.29
2023-04-07T22:01:11.579Z,101880.19
2023-04-07T22:04:23.231Z,101880.41
2023-04-07T22:07:36.612Z,101877.38
2023-04-07T22:10:43.522Z,101878.77
2023-04-07T22:13:54.356Z,101881.02
2023-04-07T22:17:05.500Z,101886.44
2023-04-07T22:20:16.300Z,101889.04
2023-04-07T22:23:28.006Z,101890.20
2023-04-07T22:26:21.859Z,101893.90
2023-04-07T22:29:23.591Z,101895.53
2023-04-07T22:32:33.113Z,101895.64
2023-04-07T22:35:44.087Z,101899.70
2023-04-07T22:38:54.839Z,101898.83
2023-04-07T22:42:05.937Z,101903.28
2023-04-07T22:45:16.864Z,101901.95
2023-04-07T22:48:20.144Z,101903.23
2023-04-07T22:51:13.576Z,101905.41
2023-04-07T22:54:25.094Z,101904.20
2023-04-07T22:57:29.205Z,101898.85
2023-04-07T23:00:28.702Z,101903.24
2023-04-07T23:03:39.570Z,101905.23
2023-04-07T23:06:50.974Z,101906.88
2023-04-07T23:09:56.332Z,101907.10
2023-04-07T23:13:01.518Z,101907.88
2023-04-07T23:16:14.791Z,101908.45
2023-04-07T23:19:19.761Z,101909.19
2023-04-07T23:22:31.019Z,101912.34
2023-04-07T23:25:42.401Z,101916.07
2023-04-07T23:28:53.162Z,101915.18
2023-04-07T23:32:02.602Z,101911.41
2023-04-07T23:34:56.112Z,101905.15
2023-04-07T23:37:50.142Z,101907.42
2023-04-07T23:41:01.348Z,101908.44
2023-04-07T23:44:12.446Z,101914.62
2023-04-07T23:47:19.937Z,101913.34
2023-04-07T23:50:33.148Z,101915.52
2023-04-07T23:53:44.707Z,101912.79
2023-04-07T23:56:58.760Z,101913.77
